sensor_id;sensor_type;location;lat;lon;timestamp;temperature;humidity
5041;DHT22;2539;52.568;13.364;2023-10-09T00:00:35;11.40;99.90
5041;DHT22;2539;52.568;13.364;2023-10-09T00:03:04;11.40;99.90
5041;DHT22;2539;52.568;13.364;2023-10-09T00:05:33;11.40;99.90
5041;DHT22;2539;52.568;13.364;2023-10-09T00:08:17;11.30;99.90
5041;DHT22;2539;52.568;13.364;2023-10-09T00:10:51;11.30;99.90
5041;DHT22;2539;52.568;13.364;2023-10-09T00:13:21;11.30;99.90
5041;DHT22;2539;52.568;13.364;2023-10-09T00:15:54;11.30;99.90
5041;DHT22;2539;52.568;13.364;2023-10-09T00:18:25;11.30;99.90
5041;DHT22;2539;52.568;13.364;2023-10-09T00:20:56;11.20;99.90
5041;DHT22;2539;52.568;13.364;2023-10-09T00:23:41;11.20;99.90
5041;DHT22;2539;52.568;13.364;2023-10-09T00:26:08;11.10;99.90
5041;DHT22;2539;52.568;13.364;2023-10-09T00:28:46;11.00;99.90
5041;DHT22;2539;52.568;13.364;2023-10-09T00:31:14;10.90;99.90
5041;DHT22;2539;52.568;13.364;2023-10-09T00:33:56;10.90;99.90
5041;DHT22;2539;52.568;13.364;2023-10-09T00:36:22;10.80;99.90
5041;DHT22;2539;52.568;13.364;2023-10-09T00:38:54;10.80;99.90
5041;DHT22;2539;52.568;13.364;2023-10-09T00:41:21;10.80;99.90
5041;DHT22;2539;52.568;13.364;2023-10-09T00:43:51;10.70;99.90
5041;DHT22;2539;52.568;13.364;2023-10-09T00:46:21;10.70;99.90
5041;DHT22;2539;52.568;13.364;2023-10-09T00:48:49;10.70;99.90
5041;DHT22;2539;52.568;13.364;2023-10-09T00:51:16;10.70;99.90
5041;DHT22;2539;52.568;13.364;2023-10-09T00:53:53;10.70;99.90
5041;DHT22;2539;52.568;13.364;2023-10-09T00:56:22;10.70;99.90
5041;DHT22;2539;52.568;13.364;2023-10-09T00:59:01;10.70;99.90
5041;DHT22;2539;52.568;13.364;2023-10-09T01:01:36;10.70;99.90
5041;DHT22;2539;52.568;13.364;2023-10-09T01:04:05;10.70;99.90
5041;DHT22;2539;52.568;13.364;2023-10-09T01:06:43;10.60;99.90
5041;DHT22;2539;52.568;13.364;2023-10-09T01:09:11;10.60;99.90
5041;DHT22;2539;52.568;13.364;2023-10-09T01:11:41;10.60;99.90
5041;DHT22;2539;52.568;13.364;2023-10-09T01:14:15;10.60;99.90
5041;DHT22;2539;52.568;13.364;2023-10-09T01:16:42;10.60;99.90
5041;DHT22;2539;52.568;13.364;2023-10-09T01:19:09;10.60;99.90
5041;DHT22;2539;52.568;13.364;2023-10-09T01:21:51;10.60;99.90
5041;DHT22;2539;52.568;13.364;2023-10-09T01:24:17;10.50;99.90
5041;DHT22;2539;52.568;13.364;2023-10-09T01:26:46;10.50;99.90
5041;DHT22;2539;52.568;13.364;2023-10-09T01:29:22;10.50;99.90
5041;DHT22;2539;52.568;13.364;2023-10-09T01:31:49;10.50;99.90
5041;DHT22;2539;52.568;13.364;2023-10-09T01:34:33;10.50;99.90
5041;DHT22;2539;52.568;13.364;2023-10-09T01:37:14;10.50;99.90
5041;DHT22;2539;52.568;13.364;2023-10-09T01:39:56;10.50;99.90
5041;DHT22;2539;52.568;13.364;2023-10-09T01:42:45;10.40;99.90
5041;DHT22;2539;52.568;13.364;2023-10-09T01:45:12;10.40;99.90
5041;DHT22;2539;52.568;13.364;2023-10-09T01:47:53;10.40;99.90
5041;DHT22;2539;52.568;13.364;2023-10-09T01:50:23;10.40;99.90
5041;DHT22;2539;52.568;13.364;2023-10-09T01:52:53;10.40;99.90
5041;DHT22;2539;52.568;13.364;2023-10-09T01:55:20;10.40;99.90
5041;DHT22;2539;52.568;13.364;2023-10-09T01:58:01;10.50;99.90
5041;DHT22;2539;52.568;13.364;2023-10-09T02:00:50;10.40;99.90
5041;DHT22;2539;52.568;13.364;2023-10-09T02:03:23;10.40;99.90
5041;DHT22;2539;52.568;13.364;2023-10-09T02:05:50;10.40;99.90
5041;DHT22;2539;52.568;13.364;2023-10-09T02:08:19;10.40;99.90
5041;DHT22;2539;52.568;13.364;2023-10-09T02:10:53;10.40;99.90
5041;DHT22;2539;52.568;13.364;2023-10-09T02:13:22;10.40;99.90
5041;DHT22;2539;52.568;13.364;2023-10-09T02:15:58;10.40;99.90
5041;DHT22;2539;52.568;13.364;2023-10-09T02:18:41;10.40;99.90
5041;DHT22;2539;52.568;13.364;2023-10-09T02:21:18;10.40;99.90
5041;DHT22;2539;52.568;13.364;2023-10-09T02:23:58;10.40;99.90
5041;DHT22;2539;52.568;13.364;2023-10-09T02:26:29;10.40;99.90
5041;DHT22;2539;52.568;13.364;2023-10-09T02:29:15;10.40;99.90
5041;DHT22;2539;52.568;13.364;2023-10-09T02:31:46;10.40;99.90
5041;DHT22;2539;52.568;13.364;2023-10-09T02:34:18;10.40;99.90
5041;DHT22;2539;52.568;13.364;2023-10-09T02:36:53;10.40;99.90
5041;DHT22;2539;52.568;13.364;2023-10-09T02:39:33;10.40;99.90
5041;DHT22;2539;52.568;13.364;2023-10-09T02:42:09;10.40;99.90
5041;DHT22;2539;52.568;13.364;2023-10-09T02:44:38;10.40;99.90
5041;DHT22;2539;52.568;13.364;2023-10-09T02:47:25;10.40;99.90
5041;DHT22;2539;52.568;13.364;2023-10-09T02:49:55;10.30;99.90
5041;DHT22;2539;52.568;13.364;2023-10-09T02:52:26;10.40;99.90
5041;DHT22;2539;52.568;13.364;2023-10-09T02:55:07;10.30;99.90
5041;DHT22;2539;52.568;13.364;2023-10-09T02:57:38;10.40;99.90
5041;DHT22;2539;52.568;13.364;2023-10-09T03:00:08;10.30;99.90
5041;DHT22;2539;52.568;13.364;2023-10-09T03:02:45;10.30;99.90
5041;DHT22;2539;52.568;13.364;2023-10-09T03:05:16;10.30;99.90
5041;DHT22;2539;52.568;13.364;2023-10-09T03:07:42;10.30;99.90
5041;DHT22;2539;52.568;13.364;2023-10-09T03:10:10;10.30;99.90
5041;DHT22;2539;52.568;13.364;2023-10-09T03:12:37;10.30;99.90
5041;DHT22;2539;52.568;13.364;2023-10-09T03:15:05;10.30;99.90
5041;DHT22;2539;52.568;13.364;2023-10-09T03:17:34;10.30;99.90
5041;DHT22;2539;52.568;13.364;2023-10-09T03:20:05;10.30;99.90
5041;DHT22;2539;52.568;13.364;2023-10-09T03:22:38;10.30;99.90
5041;DHT22;2539;52.568;13.364;2023-10-09T03:25:08;10.20;99.90
5041;DHT22;2539;52.568;13.364;2023-10-09T03:27:44;10.30;99.90
5041;DHT22;2539;52.568;13.364;2023-10-09T03:30:17;10.30;99.90
5041;DHT22;2539;52.568;13.364;2023-10-09T03:32:53;10.30;99.90
5041;DHT22;2539;52.568;13.364;2023-10-09T03:35:21;10.30;99.90
5041;DHT22;2539;52.568;13.364;2023-10-09T03:37:55;10.30;99.90
5041;DHT22;2539;52.568;13.364;2023-10-09T03:40:44;10.30;99.90
5041;DHT22;2539;52.568;13.364;2023-10-09T03:43:12;10.30;99.90
5041;DHT22;2539;52.568;13.364;2023-10-09T03:45:40;10.30;99.90
5041;DHT22;2539;52.568;13.364;2023-10-09T03:48:19;10.30;99.90
5041;DHT22;2539;52.568;13.364;2023-10-09T03:50:52;10.30;99.90
5041;DHT22;2539;52.568;13.364;2023-10-09T03:53:38;10.30;99.90
5041;DHT22;2539;52.568;13.364;2023-10-09T03:56:09;10.30;99.90
5041;DHT22;2539;52.568;13.364;2023-10-09T03:58:39;10.20;99.90
5041;DHT22;2539;52.568;13.364;2023-10-09T04:01:13;10.20;99.90
5041;DHT22;2539;52.568;13.364;2023-10-09T04:03:56;10.20;99.90
5041;DHT22;2539;52.568;13.364;2023-10-09T04:06:30;10.10;99.90
5041;DHT22;2539;52.568;13.364;2023-10-09T04:08:59;10.20;99.90
5041;DHT22;2539;52.568;13.364;2023-10-09T04:11:26;10.10;99.90
5041;DHT22;2539;52.568;13.364;2023-10-09T04:13:52;10.10;99.90
5041;DHT22;2539;52.568;13.364;2023-10-09T04:16:19;10.00;99.90
5041;DHT22;2539;52.568;13.364;2023-10-09T04:19:00;9.90;99.90
5041;DHT22;2539;52.568;13.364;2023-10-09T04:21:37;9.90;99.90
5041;DHT22;2539;52.568;13.364;2023-10-09T04:24:05;9.90;99.90
5041;DHT22;2539;52.568;13.364;2023-10-09T04:26:41;9.80;99.90
5041;DHT22;2539;52.568;13.364;2023-10-09T04:29:11;9.90;99.90
5041;DHT22;2539;52.568;13.364;2023-10-09T04:31:47;9.90;99.90
5041;DHT22;2539;52.568;13.364;2023-10-09T04:34:18;9.90;99.90
5041;DHT22;2539;52.568;13.364;2023-10-09T04:36:49;9.90;99.90
5041;DHT22;2539;52.568;13.364;2023-10-09T04:39:16;10.00;99.90
5041;DHT22;2539;52.568;13.364;2023-10-09T04:42:01;10.00;99.90
5041;DHT22;2539;52.568;13.364;2023-10-09T04:45:06;9.90;99.90
5041;DHT22;2539;52.568;13.364;2023-10-09T04:47:36;9.90;99.90
5041;DHT22;2539;52.568;13.364;2023-10-09T04:50:08;9.90;99.90
5041;DHT22;2539;52.568;13.364;2023-10-09T04:52:40;9.90;99.90
5041;DHT22;2539;52.568;13.364;2023-10-09T04:55:07;10.00;99.90
5041;DHT22;2539;52.568;13.364;2023-10-09T04:57:38;9.90;99.90
5041;DHT22;2539;52.568;13.364;2023-10-09T05:00:17;10.00;99.90
5041;DHT22;2539;52.568;13.364;2023-10-09T05:03:00;10.00;99.90
5041;DHT22;2539;52.568;13.364;2023-10-09T05:05:37;10.00;99.90
5041;DHT22;2539;52.568;13.364;2023-10-09T05:10:48;10.10;99.90
5041;DHT22;2539;52.568;13.364;2023-10-09T05:13:24;10.00;99.90
5041;DHT22;2539;52.568;13.364;2023-10-09T05:16:16;10.00;99.90
5041;DHT22;2539;52.568;13.364;2023-10-09T05:18:56;10.00;99.90
5041;DHT22;2539;52.568;13.364;2023-10-09T05:21:24;10.00;99.90
5041;DHT22;2539;52.568;13.364;2023-10-09T05:23:57;10.00;99.90
5041;DHT22;2539;52.568;13.364;2023-10-09T05:26:45;10.00;99.90
5041;DHT22;2539;52.568;13.364;2023-10-09T05:29:15;10.00;99.90
5041;DHT22;2539;52.568;13.364;2023-10-09T05:32:00;10.00;99.90
5041;DHT22;2539;52.568;13.364;2023-10-09T05:34:30;10.00;99.90
5041;DHT22;2539;52.568;13.364;2023-10-09T05:37:15;10.00;99.90
5041;DHT22;2539;52.568;13.364;2023-10-09T05:39:49;10.00;99.90
5041;DHT22;2539;52.568;13.364;2023-10-09T05:42:30;10.00;99.90
5041;DHT22;2539;52.568;13.364;2023-10-09T05:45:07;10.00;99.90
5041;DHT22;2539;52.568;13.364;2023-10-09T05:47:52;10.00;99.90
5041;DHT22;2539;52.568;13.364;2023-10-09T05:52:50;10.00;99.90
5041;DHT22;2539;52.568;13.364;2023-10-09T05:55:25;10.00;99.90
5041;DHT22;2539;52.568;13.364;2023-10-09T05:58:11;10.10;99.90
5041;DHT22;2539;52.568;13.364;2023-10-09T06:01:03;10.10;99.90
5041;DHT22;2539;52.568;13.364;2023-10-09T06:03:48;10.10;99.90
5041;DHT22;2539;52.568;13.364;2023-10-09T06:06:15;10.00;99.90
5041;DHT22;2539;52.568;13.364;2023-10-09T06:09:04;10.10;99.90
5041;DHT22;2539;52.568;13.364;2023-10-09T06:11:57;10.10;99.90
5041;DHT22;2539;52.568;13.364;2023-10-09T06:14:43;10.20;99.90
5041;DHT22;2539;52.568;13.364;2023-10-09T06:17:15;10.20;99.90
5041;DHT22;2539;52.568;13.364;2023-10-09T06:19:49;10.10;99.90
5041;DHT22;2539;52.568;13.364;2023-10-09T06:22:17;10.20;99.90
5041;DHT22;2539;52.568;13.364;2023-10-09T06:25:02;10.20;99.90
5041;DHT22;2539;52.568;13.364;2023-10-09T06:27:38;10.30;99.90
5041;DHT22;2539;52.568;13.364;2023-10-09T06:30:22;10.40;99.90
5041;DHT22;2539;52.568;13.364;2023-10-09T06:32:52;10.40;99.90
5041;DHT22;2539;52.568;13.364;2023-10-09T06:35:34;10.50;99.90
5041;DHT22;2539;52.568;13.364;2023-10-09T06:38:02;10.50;99.90
5041;DHT22;2539;52.568;13.364;2023-10-09T06:40:38;10.60;99.90
5041;DHT22;2539;52.568;13.364;2023-10-09T06:43:24;10.70;99.90
5041;DHT22;2539;52.568;13.364;2023-10-09T06:45:51;10.80;99.90
5041;DHT22;2539;52.568;13.364;2023-10-09T06:48:22;10.90;99.90
5041;DHT22;2539;52.568;13.364;2023-10-09T06:51:08;10.90;99.90
5041;DHT22;2539;52.568;13.364;2023-10-09T06:53:56;10.90;99.90
5041;DHT22;2539;52.568;13.364;2023-10-09T06:56:24;10.90;99.90
5041;DHT22;2539;52.568;13.364;2023-10-09T06:59:01;10.90;99.90
5041;DHT22;2539;52.568;13.364;2023-10-09T07:01:41;11.00;99.90
5041;DHT22;2539;52.568;13.364;2023-10-09T07:04:13;11.10;99.90
5041;DHT22;2539;52.568;13.364;2023-10-09T07:06:46;11.10;99.90
5041;DHT22;2539;52.568;13.364;2023-10-09T07:09:13;11.20;99.90
5041;DHT22;2539;52.568;13.364;2023-10-09T07:11:44;11.20;99.90
5041;DHT22;2539;52.568;13.364;2023-10-09T07:14:15;11.30;99.90
5041;DHT22;2539;52.568;13.364;2023-10-09T07:19:31;11.50;99.90
5041;DHT22;2539;52.568;13.364;2023-10-09T07:22:03;11.60;99.90
5041;DHT22;2539;52.568;13.364;2023-10-09T07:24:30;11.70;99.90
5041;DHT22;2539;52.568;13.364;2023-10-09T07:27:19;11.70;99.90
5041;DHT22;2539;52.568;13.364;2023-10-09T07:30:06;11.70;99.90
5041;DHT22;2539;52.568;13.364;2023-10-09T07:32:53;11.80;99.90
5041;DHT22;2539;52.568;13.364;2023-10-09T07:35:21;11.90;99.90
5041;DHT22;2539;52.568;13.364;2023-10-09T07:38:06;11.90;99.90
5041;DHT22;2539;52.568;13.364;2023-10-09T07:40:39;12.00;99.90
5041;DHT22;2539;52.568;13.364;2023-10-09T07:43:23;11.90;99.90
5041;DHT22;2539;52.568;13.364;2023-10-09T07:45:55;11.90;99.90
5041;DHT22;2539;52.568;13.364;2023-10-09T07:48:25;11.90;99.90
5041;DHT22;2539;52.568;13.364;2023-10-09T07:50:51;12.00;99.90
5041;DHT22;2539;52.568;13.364;2023-10-09T07:53:23;11.90;99.90
5041;DHT22;2539;52.568;13.364;2023-10-09T07:55:53;12.00;99.90
5041;DHT22;2539;52.568;13.364;2023-10-09T07:58:32;12.00;99.90
5041;DHT22;2539;52.568;13.364;2023-10-09T08:01:15;12.10;99.90
5041;DHT22;2539;52.568;13.364;2023-10-09T08:03:42;12.20;99.90
5041;DHT22;2539;52.568;13.364;2023-10-09T08:06:12;12.20;99.90
5041;DHT22;2539;52.568;13.364;2023-10-09T08:08:57;12.20;99.90
5041;DHT22;2539;52.568;13.364;2023-10-09T08:11:47;12.00;99.90
5041;DHT22;2539;52.568;13.364;2023-10-09T08:14:32;12.10;99.90
5041;DHT22;2539;52.568;13.364;2023-10-09T08:17:01;12.10;99.90
5041;DHT22;2539;52.568;13.364;2023-10-09T08:19:48;12.10;99.90
5041;DHT22;2539;52.568;13.364;2023-10-09T08:22:27;12.20;99.90
5041;DHT22;2539;52.568;13.364;2023-10-09T08:24:54;12.10;99.90
5041;DHT22;2539;52.568;13.364;2023-10-09T08:27:24;12.10;99.90
5041;DHT22;2539;52.568;13.364;2023-10-09T08:29:59;12.10;99.90
5041;DHT22;2539;52.568;13.364;2023-10-09T08:32:48;12.10;99.90
5041;DHT22;2539;52.568;13.364;2023-10-09T08:35:28;12.10;99.90
5041;DHT22;2539;52.568;13.364;2023-10-09T08:38:00;12.10;99.90
5041;DHT22;2539;52.568;13.364;2023-10-09T08:40:42;12.10;99.90
5041;DHT22;2539;52.568;13.364;2023-10-09T08:43:17;12.10;99.90
5041;DHT22;2539;52.568;13.364;2023-10-09T08:45:48;12.10;99.90
5041;DHT22;2539;52.568;13.364;2023-10-09T08:48:14;12.00;99.90
5041;DHT22;2539;52.568;13.364;2023-10-09T08:50:48;12.00;99.90
5041;DHT22;2539;52.568;13.364;2023-10-09T08:53:16;12.10;99.90
5041;DHT22;2539;52.568;13.364;2023-10-09T08:55:42;12.10;99.90
5041;DHT22;2539;52.568;13.364;2023-10-09T08:58:09;12.10;99.90
5041;DHT22;2539;52.568;13.364;2023-10-09T09:00:47;12.10;99.90
5041;DHT22;2539;52.568;13.364;2023-10-09T09:03:15;12.10;99.90
5041;DHT22;2539;52.568;13.364;2023-10-09T09:06:01;12.10;99.90
5041;DHT22;2539;52.568;13.364;2023-10-09T09:08:30;12.20;99.90
5041;DHT22;2539;52.568;13.364;2023-10-09T09:11:01;12.20;99.90
5041;DHT22;2539;52.568;13.364;2023-10-09T09:16:25;12.30;99.90
5041;DHT22;2539;52.568;13.364;2023-10-09T09:21:32;12.40;99.90
5041;DHT22;2539;52.568;13.364;2023-10-09T09:24:11;12.60;99.90
5041;DHT22;2539;52.568;13.364;2023-10-09T09:26:43;12.80;99.90
5041;DHT22;2539;52.568;13.364;2023-10-09T09:29:14;13.00;99.90
5041;DHT22;2539;52.568;13.364;2023-10-09T09:31:55;13.10;99.90
5041;DHT22;2539;52.568;13.364;2023-10-09T09:34:44;13.20;99.90
5041;DHT22;2539;52.568;13.364;2023-10-09T09:37:23;13.20;99.90
5041;DHT22;2539;52.568;13.364;2023-10-09T09:40:16;13.20;99.90
5041;DHT22;2539;52.568;13.364;2023-10-09T09:43:01;13.30;99.90
5041;DHT22;2539;52.568;13.364;2023-10-09T09:45:38;13.50;99.90
5041;DHT22;2539;52.568;13.364;2023-10-09T09:48:05;13.50;99.90
5041;DHT22;2539;52.568;13.364;2023-10-09T09:50:42;13.50;99.90
5041;DHT22;2539;52.568;13.364;2023-10-09T09:53:14;13.40;99.90
5041;DHT22;2539;52.568;13.364;2023-10-09T09:55:49;13.40;99.90
5041;DHT22;2539;52.568;13.364;2023-10-09T09:58:18;13.30;99.90
5041;DHT22;2539;52.568;13.364;2023-10-09T10:00:49;13.10;99.90
5041;DHT22;2539;52.568;13.364;2023-10-09T10:03:27;13.00;99.90
5041;DHT22;2539;52.568;13.364;2023-10-09T10:05:56;12.90;99.90
5041;DHT22;2539;52.568;13.364;2023-10-09T10:08:24;12.90;99.90
5041;DHT22;2539;52.568;13.364;2023-10-09T10:11:00;12.80;99.90
5041;DHT22;2539;52.568;13.364;2023-10-09T10:16:13;12.80;99.90
5041;DHT22;2539;52.568;13.364;2023-10-09T10:21:26;12.80;99.90
5041;DHT22;2539;52.568;13.364;2023-10-09T10:24:00;12.80;99.90
5041;DHT22;2539;52.568;13.364;2023-10-09T10:26:33;12.90;99.90
5041;DHT22;2539;52.568;13.364;2023-10-09T10:29:17;13.00;99.90
5041;DHT22;2539;52.568;13.364;2023-10-09T10:31:56;13.10;99.90
5041;DHT22;2539;52.568;13.364;2023-10-09T10:34:24;13.10;99.90
5041;DHT22;2539;52.568;13.364;2023-10-09T10:36:52;13.10;99.90
5041;DHT22;2539;52.568;13.364;2023-10-09T10:39:25;13.10;99.90
5041;DHT22;2539;52.568;13.364;2023-10-09T10:42:09;13.10;99.90
5041;DHT22;2539;52.568;13.364;2023-10-09T10:44:58;13.30;99.90
5041;DHT22;2539;52.568;13.364;2023-10-09T10:47:27;13.30;99.90
5041;DHT22;2539;52.568;13.364;2023-10-09T10:50:04;13.40;99.90
5041;DHT22;2539;52.568;13.364;2023-10-09T10:52:49;13.50;99.90
5041;DHT22;2539;52.568;13.364;2023-10-09T10:55:23;13.50;99.90
5041;DHT22;2539;52.568;13.364;2023-10-09T10:57:55;13.50;99.90
5041;DHT22;2539;52.568;13.364;2023-10-09T11:00:28;13.30;99.90
5041;DHT22;2539;52.568;13.364;2023-10-09T11:03:20;13.20;99.90
5041;DHT22;2539;52.568;13.364;2023-10-09T11:05:56;13.20;99.90
5041;DHT22;2539;52.568;13.364;2023-10-09T11:08:46;13.10;99.90
5041;DHT22;2539;52.568;13.364;2023-10-09T11:11:20;13.10;99.90
5041;DHT22;2539;52.568;13.364;2023-10-09T11:13:47;13.10;99.90
5041;DHT22;2539;52.568;13.364;2023-10-09T11:16:25;13.20;99.90
5041;DHT22;2539;52.568;13.364;2023-10-09T11:19:01;13.30;99.90
5041;DHT22;2539;52.568;13.364;2023-10-09T11:21:38;13.20;99.90
5041;DHT22;2539;52.568;13.364;2023-10-09T11:24:08;13.20;99.90
5041;DHT22;2539;52.568;13.364;2023-10-09T11:26:50;13.00;99.90
5041;DHT22;2539;52.568;13.364;2023-10-09T11:29:23;13.10;99.90
5041;DHT22;2539;52.568;13.364;2023-10-09T11:32:04;13.10;99.90
5041;DHT22;2539;52.568;13.364;2023-10-09T11:34:32;13.10;99.90
5041;DHT22;2539;52.568;13.364;2023-10-09T11:37:13;13.30;99.90
5041;DHT22;2539;52.568;13.364;2023-10-09T11:39:42;13.60;99.90
5041;DHT22;2539;52.568;13.364;2023-10-09T11:42:19;13.90;99.90
5041;DHT22;2539;52.568;13.364;2023-10-09T11:45:05;14.30;99.90
5041;DHT22;2539;52.568;13.364;2023-10-09T11:47:53;14.70;99.90
5041;DHT22;2539;52.568;13.364;2023-10-09T11:50:43;15.00;99.90
5041;DHT22;2539;52.568;13.364;2023-10-09T11:53:10;15.10;99.90
5041;DHT22;2539;52.568;13.364;2023-10-09T11:55:50;15.10;99.90
5041;DHT22;2539;52.568;13.364;2023-10-09T11:58:16;14.90;99.90
5041;DHT22;2539;52.568;13.364;2023-10-09T12:03:17;14.80;99.90
5041;DHT22;2539;52.568;13.364;2023-10-09T12:05:47;14.90;99.90
5041;DHT22;2539;52.568;13.364;2023-10-09T12:08:14;14.80;99.90
5041;DHT22;2539;52.568;13.364;2023-10-09T12:10:42;14.50;99.90
5041;DHT22;2539;52.568;13.364;2023-10-09T12:13:08;14.40;99.90
5041;DHT22;2539;52.568;13.364;2023-10-09T12:15:34;14.40;99.90
5041;DHT22;2539;52.568;13.364;2023-10-09T12:18:05;14.40;99.90
5041;DHT22;2539;52.568;13.364;2023-10-09T12:20:41;14.10;99.90
5041;DHT22;2539;52.568;13.364;2023-10-09T12:23:08;13.90;99.90
5041;DHT22;2539;52.568;13.364;2023-10-09T12:25:35;13.80;99.90
5041;DHT22;2539;52.568;13.364;2023-10-09T12:28:02;13.80;99.90
5041;DHT22;2539;52.568;13.364;2023-10-09T12:30:29;14.10;99.90
5041;DHT22;2539;52.568;13.364;2023-10-09T12:32:56;14.00;99.90
5041;DHT22;2539;52.568;13.364;2023-10-09T12:35:24;14.00;99.90
5041;DHT22;2539;52.568;13.364;2023-10-09T12:37:54;14.10;99.90
5041;DHT22;2539;52.568;13.364;2023-10-09T12:40:22;14.20;99.90
5041;DHT22;2539;52.568;13.364;2023-10-09T12:42:55;14.10;99.90
5041;DHT22;2539;52.568;13.364;2023-10-09T12:45:25;14.10;99.90
5041;DHT22;2539;52.568;13.364;2023-10-09T12:47:59;14.00;99.90
5041;DHT22;2539;52.568;13.364;2023-10-09T12:50:25;14.00;99.90
5041;DHT22;2539;52.568;13.364;2023-10-09T12:52:56;13.90;99.90
5041;DHT22;2539;52.568;13.364;2023-10-09T12:55:23;13.90;99.90
5041;DHT22;2539;52.568;13.364;2023-10-09T12:58:00;14.00;99.90
5041;DHT22;2539;52.568;13.364;2023-10-09T13:00:34;14.10;99.90
5041;DHT22;2539;52.568;13.364;2023-10-09T13:03:06;14.10;99.90
5041;DHT22;2539;52.568;13.364;2023-10-09T13:05:50;14.10;99.90
5041;DHT22;2539;52.568;13.364;2023-10-09T13:08:27;14.10;99.90
5041;DHT22;2539;52.568;13.364;2023-10-09T13:11:06;13.80;99.90
5041;DHT22;2539;52.568;13.364;2023-10-09T13:13:43;13.60;99.90
5041;DHT22;2539;52.568;13.364;2023-10-09T13:16:12;13.60;99.90
5041;DHT22;2539;52.568;13.364;2023-10-09T13:18:42;13.70;99.90
5041;DHT22;2539;52.568;13.364;2023-10-09T13:21:26;13.70;99.90
5041;DHT22;2539;52.568;13.364;2023-10-09T13:23:52;13.70;99.90
5041;DHT22;2539;52.568;13.364;2023-10-09T13:26:24;13.60;99.90
5041;DHT22;2539;52.568;13.364;2023-10-09T13:28:55;13.50;99.90
5041;DHT22;2539;52.568;13.364;2023-10-09T13:31:22;13.40;99.90
5041;DHT22;2539;52.568;13.364;2023-10-09T13:33:55;13.30;99.90
5041;DHT22;2539;52.568;13.364;2023-10-09T13:36:26;13.30;99.90
5041;DHT22;2539;52.568;13.364;2023-10-09T13:39:07;13.20;99.90
5041;DHT22;2539;52.568;13.364;2023-10-09T13:41:57;13.10;99.90
5041;DHT22;2539;52.568;13.364;2023-10-09T13:44:28;13.00;99.90
5041;DHT22;2539;52.568;13.364;2023-10-09T13:46:55;13.00;99.90
5041;DHT22;2539;52.568;13.364;2023-10-09T13:49:22;12.90;99.90
5041;DHT22;2539;52.568;13.364;2023-10-09T13:51:56;12.90;99.90
5041;DHT22;2539;52.568;13.364;2023-10-09T13:54:23;12.90;99.90
5041;DHT22;2539;52.568;13.364;2023-10-09T13:56:59;12.80;99.90
5041;DHT22;2539;52.568;13.364;2023-10-09T13:59:26;12.80;99.90
5041;DHT22;2539;52.568;13.364;2023-10-09T14:01:53;12.70;99.90
5041;DHT22;2539;52.568;13.364;2023-10-09T14:04:23;12.80;99.90
5041;DHT22;2539;52.568;13.364;2023-10-09T14:06:50;12.70;99.90
5041;DHT22;2539;52.568;13.364;2023-10-09T14:09:27;12.80;99.90
5041;DHT22;2539;52.568;13.364;2023-10-09T14:12:11;12.80;99.90
5041;DHT22;2539;52.568;13.364;2023-10-09T14:14:43;12.90;99.90
5041;DHT22;2539;52.568;13.364;2023-10-09T14:17:17;13.00;99.90
5041;DHT22;2539;52.568;13.364;2023-10-09T14:19:50;13.00;99.90
5041;DHT22;2539;52.568;13.364;2023-10-09T14:22:18;13.00;99.90
5041;DHT22;2539;52.568;13.364;2023-10-09T14:24:46;13.10;99.90
5041;DHT22;2539;52.568;13.364;2023-10-09T14:27:13;13.10;99.90
5041;DHT22;2539;52.568;13.364;2023-10-09T14:29:48;13.20;99.90
5041;DHT22;2539;52.568;13.364;2023-10-09T14:32:15;13.20;99.90
5041;DHT22;2539;52.568;13.364;2023-10-09T14:34:43;13.20;99.90
5041;DHT22;2539;52.568;13.364;2023-10-09T14:37:16;13.10;99.90
5041;DHT22;2539;52.568;13.364;2023-10-09T14:39:44;13.10;99.90
5041;DHT22;2539;52.568;13.364;2023-10-09T14:42:21;13.00;99.90
5041;DHT22;2539;52.568;13.364;2023-10-09T14:44:50;13.00;99.90
5041;DHT22;2539;52.568;13.364;2023-10-09T14:47:16;13.00;99.90
5041;DHT22;2539;52.568;13.364;2023-10-09T14:49:47;12.90;99.90
5041;DHT22;2539;52.568;13.364;2023-10-09T14:52:15;12.90;99.90
5041;DHT22;2539;52.568;13.364;2023-10-09T14:54:43;12.80;99.90
5041;DHT22;2539;52.568;13.364;2023-10-09T14:57:12;12.70;99.90
5041;DHT22;2539;52.568;13.364;2023-10-09T14:59:39;12.70;99.90
5041;DHT22;2539;52.568;13.364;2023-10-09T15:02:06;12.70;99.90
5041;DHT22;2539;52.568;13.364;2023-10-09T15:04:33;12.70;99.90
5041;DHT22;2539;52.568;13.364;2023-10-09T15:07:04;12.70;99.90
5041;DHT22;2539;52.568;13.364;2023-10-09T15:09:34;12.70;99.90
5041;DHT22;2539;52.568;13.364;2023-10-09T15:12:02;12.70;99.90
5041;DHT22;2539;52.568;13.364;2023-10-09T15:14:32;12.60;99.90
5041;DHT22;2539;52.568;13.364;2023-10-09T15:16:59;12.60;99.90
5041;DHT22;2539;52.568;13.364;2023-10-09T15:19:24;12.60;99.90
5041;DHT22;2539;52.568;13.364;2023-10-09T15:21:57;12.60;99.90
5041;DHT22;2539;52.568;13.364;2023-10-09T15:24:24;12.60;99.90
5041;DHT22;2539;52.568;13.364;2023-10-09T15:26:51;12.50;99.90
5041;DHT22;2539;52.568;13.364;2023-10-09T15:29:27;12.60;99.90
5041;DHT22;2539;52.568;13.364;2023-10-09T15:32:02;12.40;99.90
5041;DHT22;2539;52.568;13.364;2023-10-09T15:34:40;12.50;99.90
5041;DHT22;2539;52.568;13.364;2023-10-09T15:37:10;12.50;99.90
5041;DHT22;2539;52.568;13.364;2023-10-09T15:39:36;12.50;99.90
5041;DHT22;2539;52.568;13.364;2023-10-09T15:42:02;12.50;99.90
5041;DHT22;2539;52.568;13.364;2023-10-09T15:44:32;12.50;99.90
5041;DHT22;2539;52.568;13.364;2023-10-09T15:47:02;12.40;99.90
5041;DHT22;2539;52.568;13.364;2023-10-09T15:49:29;12.40;99.90
5041;DHT22;2539;52.568;13.364;2023-10-09T15:52:00;12.30;99.90
5041;DHT22;2539;52.568;13.364;2023-10-09T15:54:29;12.30;99.90
5041;DHT22;2539;52.568;13.364;2023-10-09T15:56:55;12.20;99.90
5041;DHT22;2539;52.568;13.364;2023-10-09T15:59:23;12.20;99.90
5041;DHT22;2539;52.568;13.364;2023-10-09T16:01:50;12.20;99.90
5041;DHT22;2539;52.568;13.364;2023-10-09T16:04:17;12.20;99.90
5041;DHT22;2539;52.568;13.364;2023-10-09T16:06:44;12.20;99.90
5041;DHT22;2539;52.568;13.364;2023-10-09T16:09:10;12.20;99.90
5041;DHT22;2539;52.568;13.364;2023-10-09T16:11:41;12.20;99.90
5041;DHT22;2539;52.568;13.364;2023-10-09T16:14:07;12.10;99.90
5041;DHT22;2539;52.568;13.364;2023-10-09T16:16:37;12.10;99.90
5041;DHT22;2539;52.568;13.364;2023-10-09T16:19:08;12.10;99.90
5041;DHT22;2539;52.568;13.364;2023-10-09T16:21:38;12.10;99.90
5041;DHT22;2539;52.568;13.364;2023-10-09T16:24:05;12.10;99.90
5041;DHT22;2539;52.568;13.364;2023-10-09T16:26:32;12.10;99.90
5041;DHT22;2539;52.568;13.364;2023-10-09T16:29:06;12.00;99.90
5041;DHT22;2539;52.568;13.364;2023-10-09T16:31:34;12.00;99.90
5041;DHT22;2539;52.568;13.364;2023-10-09T16:34:04;12.00;99.90
5041;DHT22;2539;52.568;13.364;2023-10-09T16:36:36;11.90;99.90
5041;DHT22;2539;52.568;13.364;2023-10-09T16:39:05;11.90;99.90
5041;DHT22;2539;52.568;13.364;2023-10-09T16:41:47;11.90;99.90
5041;DHT22;2539;52.568;13.364;2023-10-09T16:44:13;11.80;99.90
5041;DHT22;2539;52.568;13.364;2023-10-09T16:46:44;11.80;99.90
5041;DHT22;2539;52.568;13.364;2023-10-09T16:49:13;11.80;99.90